Time;durP1;ratioP1;P1;durP2;ratioP2;P2;SDS_P1;SDS_P2;PMS_P1;PMS_P2;Temp;Humidity;BMP_temperature;BMP_pressure;BME280_temperature;BME280_humidity;BME280_pressure;Samples;Min_cycle;Max_cycle;Signal;HPM_P1;HPM_P2
2022/05/29 00:00:21;;;;;;;7.70;3.30;;;;;;;9.27;52.32;98673.30;105823;1281;110826;-63
2022/05/29 00:03:08;;;;;;;14.60;3.20;;;;;;;9.27;52.33;98672.98;105908;1281;97959;-66
2022/05/29 00:05:44;;;;;;;13.80;4.10;;;;;;;9.27;52.29;98676.88;105847;1281;108358;-66
2022/05/29 00:08:26;;;;;;;10.70;3.50;;;;;;;9.27;52.43;98681.48;105852;1279;95674;-66
2022/05/29 00:11:02;;;;;;;10.20;2.90;;;;;;;9.25;52.42;98685.09;105747;1281;97968;-66
2022/05/29 00:13:30;;;;;;;8.80;3.10;;;;;;;9.21;52.52;98683.48;105907;1281;111540;-67
2022/05/29 00:16:00;;;;;;;11.80;3.80;;;;;;;9.14;52.44;98687.38;105758;1281;98503;-67
2022/05/29 00:18:28;;;;;;;13.30;3.60;;;;;;;8.99;52.11;98685.06;105617;1282;108361;-66
2022/05/29 00:21:05;;;;;;;11.90;3.50;;;;;;;8.72;51.95;98685.92;105738;1281;98063;-67
2022/05/29 00:23:42;;;;;;;8.60;3.20;;;;;;;8.57;52.42;98684.14;105797;1281;97902;-65
2022/05/29 00:26:13;;;;;;;11.60;3.60;;;;;;;8.52;52.78;98679.54;105754;1281;111599;-65
2022/05/29 00:28:48;;;;;;;10.90;3.80;;;;;;;8.54;52.98;98679.79;105917;1279;97760;-67
2022/05/29 00:31:16;;;;;;;7.50;3.30;;;;;;;8.56;52.98;98676.73;105926;1279;108410;-66
2022/05/29 00:33:49;;;;;;;11.00;3.30;;;;;;;8.59;52.90;98678.13;105972;1279;96396;-65
2022/05/29 00:36:20;;;;;;;10.40;3.40;;;;;;;8.61;52.93;98674.45;105915;1279;95329;-67
2022/05/29 00:38:55;;;;;;;9.60;3.70;;;;;;;8.64;52.94;98672.67;105870;1279;112121;-67
2022/05/29 00:41:33;;;;;;;13.00;3.60;;;;;;;8.68;52.97;98673.49;105911;1279;97822;-65
2022/05/29 00:44:27;;;;;;;10.60;3.60;;;;;;;8.71;53.18;98672.55;105739;1281;107587;-67
2022/05/29 00:47:13;;;;;;;7.50;3.00;;;;;;;8.74;53.15;98666.83;105765;1281;95325;-66
2022/05/29 00:49:48;;;;;;;11.60;3.50;;;;;;;8.77;53.12;98660.13;105531;1281;95295;-66
2022/05/29 00:52:31;;;;;;;10.10;3.40;;;;;;;8.79;53.16;98661.89;105737;1281;111617;-66
2022/05/29 00:55:24;;;;;;;12.60;3.30;;;;;;;8.83;53.16;98664.83;105768;1281;97991;-67
2022/05/29 00:58:00;;;;;;;12.10;3.20;;;;;;;8.87;53.40;98667.13;105729;1281;107832;-67
2022/05/29 01:00:33;;;;;;;9.30;3.30;;;;;;;8.91;53.36;98665.33;105863;1279;95300;-66
2022/05/29 01:03:07;;;;;;;10.00;3.50;;;;;;;8.92;53.33;98666.46;105843;1279;95860;-66
2022/05/29 01:05:36;;;;;;;11.50;4.00;;;;;;;8.92;53.40;98671.60;105860;1279;112066;-67
2022/05/29 01:08:15;;;;;;;10.60;3.60;;;;;;;8.91;53.43;98666.54;105585;1281;97987;-67
2022/05/29 01:10:49;;;;;;;12.30;3.90;;;;;;;8.88;53.50;98667.11;107158;1279;107976;-67
2022/05/29 01:13:22;;;;;;;10.30;3.50;;;;;;;8.86;53.40;98669.90;107529;1279;95713;-66
2022/05/29 01:15:59;;;;;;;14.70;4.80;;;;;;;8.82;53.34;98673.52;107385;1277;96093;-67
2022/05/29 01:19:00;;;;;;;13.20;4.00;;;;;;;8.59;52.80;98676.42;107467;1279;111293;-66
2022/05/29 01:21:44;;;;;;;10.70;3.60;;;;;;;8.23;52.86;98679.05;106429;1281;97921;-69
2022/05/29 01:24:27;;;;;;;11.90;3.80;;;;;;;7.98;53.01;98678.83;105715;1281;107698;-70
2022/05/29 01:27:23;;;;;;;10.70;3.60;;;;;;;7.81;53.16;98672.36;105804;1281;97834;-68
2022/05/29 01:29:54;;;;;;;13.10;4.00;;;;;;;7.77;53.68;98671.91;105670;1281;97023;-69
2022/05/29 01:32:47;;;;;;;10.00;3.60;;;;;;;7.77;53.68;98670.67;105726;1281;112052;-69
2022/05/29 01:35:38;;;;;;;11.70;4.10;;;;;;;7.78;54.05;98671.52;105778;1281;97909;-64
2022/05/29 01:38:28;;;;;;;13.50;4.10;;;;;;;7.81;54.00;98673.23;105820;1281;107543;-67
2022/05/29 01:41:35;;;;;;;11.50;3.60;;;;;;;7.84;53.98;98673.36;105737;1281;95313;-66
2022/05/29 01:44:22;;;;;;;14.50;4.60;;;;;;;7.85;54.03;98668.75;105788;1279;97852;-66
2022/05/29 01:46:58;;;;;;;12.90;4.10;;;;;;;7.75;54.15;98664.77;105739;1281;112035;-67
2022/05/29 01:49:36;;;;;;;17.60;5.50;;;;;;;7.67;53.88;98662.88;105784;1281;98005;-68
2022/05/29 01:52:13;;;;;;;18.00;6.40;;;;;;;7.38;53.75;98664.41;105745;1281;107586;-68
2022/05/29 01:54:55;;;;;;;11.40;4.00;;;;;;;7.14;54.00;98663.30;105769;1281;95415;-67
2022/05/29 01:57:36;;;;;;;10.90;3.90;;;;;;;7.12;54.41;98667.02;105899;1281;97981;-67
2022/05/29 02:00:09;;;;;;;12.50;4.20;;;;;;;7.13;54.56;98669.02;105880;1279;112214;-66
2022/05/29 02:03:13;;;;;;;9.70;4.20;;;;;;;7.16;54.54;98666.91;105740;1279;98005;-66
2022/05/29 02:06:00;;;;;;;14.10;4.50;;;;;;;7.16;54.57;98668.64;105586;1281;109130;-66
2022/05/29 02:08:47;;;;;;;12.20;4.10;;;;;;;7.13;54.72;98667.95;105742;1281;98012;-67
2022/05/29 02:11:25;;;;;;;12.40;4.10;;;;;;;7.16;54.96;98671.14;105760;1280;97896;-66
2022/05/29 02:14:02;;;;;;;12.60;4.40;;;;;;;7.18;55.02;98671.17;105879;1279;111450;-66
2022/05/29 02:16:46;;;;;;;12.30;4.20;;;;;;;7.18;55.08;98669.77;105857;1279;98478;-68
2022/05/29 02:19:24;;;;;;;12.30;4.30;;;;;;;7.21;55.02;98670.65;105771;1279;108075;-67
2022/05/29 02:22:03;;;;;;;12.40;4.10;;;;;;;7.24;55.08;98672.23;105860;1279;97906;-64
2022/05/29 02:24:52;;;;;;;16.30;4.20;;;;;;;7.27;55.22;98666.39;105851;1279;95420;-67
2022/05/29 02:27:26;;;;;;;9.80;3.80;;;;;;;7.24;55.18;98668.14;105801;1280;111419;-65
2022/05/29 02:30:04;;;;;;;12.50;4.30;;;;;;;7.24;54.88;98666.95;105826;1281;97922;-68
2022/05/29 02:33:09;;;;;;;13.10;4.10;;;;;;;7.19;55.25;98666.73;105781;1281;107778;-66
2022/05/29 02:36:19;;;;;;;11.60;4.00;;;;;;;7.19;55.33;98664.09;105531;1281;97897;-66
2022/05/29 02:39:06;;;;;;;11.90;4.00;;;;;;;7.09;55.16;98666.64;105888;1281;98566;-66
2022/05/29 02:41:48;;;;;;;10.30;4.00;;;;;;;7.05;55.36;98670.44;105867;1281;111757;-67
2022/05/29 02:45:01;;;;;;;10.30;3.90;;;;;;;7.06;55.42;98673.03;105920;1279;97996;-68
2022/05/29 02:47:41;;;;;;;10.40;3.80;;;;;;;7.03;55.50;98675.68;105891;1279;107871;-69
2022/05/29 02:50:39;;;;;;;10.80;4.00;;;;;;;7.04;55.55;98674.55;105874;1279;98062;-66
2022/05/29 02:53:15;;;;;;;12.30;4.20;;;;;;;7.09;55.83;98669.98;105916;1279;97884;-66
2022/05/29 02:55:48;;;;;;;9.70;3.20;;;;;;;7.13;55.81;98667.26;105866;1281;111437;-66
2022/05/29 02:58:23;;;;;;;8.50;3.50;;;;;;;7.16;55.97;98673.95;105859;1281;97886;-67
2022/05/29 03:01:00;;;;;;;9.30;3.90;;;;;;;7.22;56.11;98678.48;105915;1279;107766;-66
2022/05/29 03:04:11;;;;;;;12.70;3.90;;;;;;;7.28;56.07;98678.27;105897;1279;97870;-67
2022/05/29 03:07:06;;;;;;;10.30;3.20;;;;;;;7.37;56.15;98681.44;105934;1279;97772;-66
2022/05/29 03:09:59;;;;;;;8.30;3.20;;;;;;;7.45;56.02;98687.44;105903;1279;111384;-66
2022/05/29 03:12:58;;;;;;;10.60;3.50;;;;;;;7.49;56.17;98693.00;105848;1281;95243;-66
2022/05/29 03:15:36;;;;;;;13.90;3.40;;;;;;;7.54;56.15;98694.75;105776;1281;109652;-66
2022/05/29 03:18:19;;;;;;;14.90;3.60;;;;;;;7.60;56.08;98692.95;105762;1281;97974;-65
2022/05/29 03:21:05;;;;;;;11.20;3.80;;;;;;;7.67;56.26;98697.64;105793;1281;97898;-66
2022/05/29 03:24:11;;;;;;;13.70;3.80;;;;;;;7.72;56.27;98700.33;105730;1281;111229;-66
2022/05/29 03:27:04;;;;;;;11.30;3.60;;;;;;;7.76;56.07;98698.46;105576;1281;97906;-65
2022/05/29 03:30:02;;;;;;;8.90;3.40;;;;;;;7.80;56.21;98699.94;105746;1281;107582;-66
2022/05/29 03:32:36;;;;;;;8.90;3.00;;;;;;;7.85;56.28;98703.86;105736;1281;98006;-66
2022/05/29 03:35:22;;;;;;;9.80;3.20;;;;;;;7.90;56.29;98705.80;105819;1281;98010;-66
2022/05/29 03:37:59;;;;;;;8.10;3.60;;;;;;;7.95;56.25;98705.84;105769;1281;111975;-66
2022/05/29 03:40:33;;;;;;;12.90;3.90;;;;;;;8.00;56.43;98708.16;105807;1281;95224;-67
2022/05/29 03:43:06;;;;;;;10.30;3.50;;;;;;;8.04;56.44;98709.45;105781;1281;108227;-66
2022/05/29 03:45:38;;;;;;;16.40;3.70;;;;;;;8.08;56.50;98713.77;103577;1281;2986823;-67
2022/05/29 03:48:09;;;;;;;12.90;3.80;;;;;;;8.12;56.50;98715.63;105802;1281;98012;-65
2022/05/29 03:50:37;;;;;;;31.70;3.60;;;;;;;8.16;56.58;98717.83;105824;1281;113077;-67
2022/05/29 03:53:08;;;;;;;12.00;3.50;;;;;;;8.19;56.51;98717.80;105784;1281;95304;-66
2022/05/29 03:55:36;;;;;;;11.50;3.90;;;;;;;8.23;56.67;98720.58;105760;1281;108382;-66
2022/05/29 03:58:06;;;;;;;9.90;3.60;;;;;;;8.25;56.70;98717.75;105805;1280;95313;-66
2022/05/29 04:00:36;;;;;;;7.90;3.40;;;;;;;8.27;56.73;98713.05;105964;1279;95311;-66
2022/05/29 04:03:08;;;;;;;8.90;3.30;;;;;;;8.29;56.67;98714.84;105945;1279;112079;-64
2022/05/29 04:05:39;;;;;;;9.20;3.50;;;;;;;8.33;56.87;98710.68;105797;1281;97903;-65
2022/05/29 04:13:51;;;;;;;9.20;3.60;;;;;;;8.45;57.04;98719.20;105775;1280;95303;-67
2022/05/29 04:16:19;;;;;;;13.00;3.70;;;;;;;8.49;56.87;98718.61;105814;1279;112042;-67
2022/05/29 04:18:50;;;;;;;9.10;3.30;;;;;;;8.54;56.92;98720.61;105779;1281;98101;-67
2022/05/29 04:21:25;;;;;;;10.60;3.70;;;;;;;8.57;56.90;98721.75;105789;1281;108393;-66
2022/05/29 04:23:53;;;;;;;10.50;3.80;;;;;;;8.61;56.93;98722.20;105815;1280;95373;-67
2022/05/29 04:26:21;;;;;;;8.90;3.30;;;;;;;8.64;57.08;98724.84;105781;1280;97990;-66
2022/05/29 04:28:49;;;;;;;10.30;3.50;;;;;;;8.68;56.95;98722.29;105828;1281;112180;-65
2022/05/29 04:31:17;;;;;;;12.10;3.40;;;;;;;8.71;56.90;98722.59;105954;1279;98002;-66
2022/05/29 04:33:49;;;;;;;9.50;3.60;;;;;;;8.75;56.92;98722.82;105823;1279;108496;-68
2022/05/29 04:36:21;;;;;;;9.90;3.80;;;;;;;8.79;57.14;98720.77;105891;1281;98496;-66
2022/05/29 04:38:57;;;;;;;13.40;4.30;;;;;;;8.83;57.15;98717.67;105903;1281;97852;-66
2022/05/29 04:41:27;;;;;;;14.50;3.80;;;;;;;8.87;57.10;98717.02;105818;1281;111376;-66
2022/05/29 04:43:58;;;;;;;8.30;3.30;;;;;;;8.91;57.18;98714.80;105774;1281;95629;-65
2022/05/29 04:46:28;;;;;;;9.20;3.40;;;;;;;8.96;57.28;98720.62;105810;1281;108390;-66
2022/05/29 04:49:00;;;;;;;7.40;3.20;;;;;;;9.02;57.27;98724.10;105997;1279;97904;-66
2022/05/29 04:51:33;;;;;;;8.90;3.60;;;;;;;9.07;57.25;98723.59;105942;1279;97974;-67
2022/05/29 04:54:01;;;;;;;14.20;4.70;;;;;;;9.12;57.30;98721.11;105810;1280;111641;-67
2022/05/29 04:56:31;;;;;;;11.30;3.80;;;;;;;9.17;57.33;98720.40;105778;1281;98009;-64
2022/05/29 04:58:59;;;;;;;12.20;4.00;;;;;;;9.22;57.39;98721.46;105724;1281;108422;-66
2022/05/29 05:01:28;;;;;;;12.50;3.50;;;;;;;9.27;57.50;98722.84;105780;1281;97925;-68
2022/05/29 05:04:00;;;;;;;9.70;3.60;;;;;;;9.32;57.53;98721.95;105800;1281;95446;-68
2022/05/29 05:06:32;;;;;;;12.10;3.30;;;;;;;9.37;57.48;98722.84;105906;1279;111938;-66
2022/05/29 05:09:02;;;;;;;13.20;3.80;;;;;;;9.41;57.48;98721.13;105882;1279;97960;-65
2022/05/29 05:11:31;;;;;;;13.60;3.40;;;;;;;9.47;57.56;98718.59;105916;1279;108055;-67
2022/05/29 05:14:04;;;;;;;8.60;3.00;;;;;;;9.52;57.57;98722.78;105932;1279;97928;-65
2022/05/29 05:16:32;;;;;;;9.20;3.40;;;;;;;9.59;57.51;98718.95;105808;1279;95292;-67
2022/05/29 05:19:01;;;;;;;9.70;3.60;;;;;;;9.64;57.52;98727.20;105831;1279;112363;-66
2022/05/29 05:21:31;;;;;;;9.70;3.20;;;;;;;9.70;57.58;98728.77;105618;1280;97983;-67
2022/05/29 05:23:58;;;;;;;9.60;3.10;;;;;;;9.75;57.52;98728.55;105647;1281;108426;-67
2022/05/29 05:26:28;;;;;;;9.20;3.30;;;;;;;9.81;57.52;98728.84;105834;1280;95280;-67
2022/05/29 05:29:04;;;;;;;11.40;4.00;;;;;;;9.86;57.52;98730.20;105740;1281;96464;-69
2022/05/29 05:31:36;;;;;;;10.30;3.20;;;;;;;9.93;57.55;98730.23;105830;1279;112031;-67
2022/05/29 05:34:04;;;;;;;10.40;3.60;;;;;;;9.99;57.60;98733.34;105955;1279;95701;-68
2022/05/29 05:36:37;;;;;;;9.60;3.40;;;;;;;10.04;57.55;98734.50;105757;1279;108365;-67
2022/05/29 05:39:05;;;;;;;13.50;3.80;;;;;;;10.10;57.64;98733.15;105743;1281;98010;-66
2022/05/29 05:41:40;;;;;;;8.70;3.20;;;;;;;10.18;57.53;98732.08;105858;1281;97977;-67
2022/05/29 05:44:08;;;;;;;8.70;3.30;;;;;;;10.25;57.63;98730.65;105782;1281;112061;-66
2022/05/29 05:46:53;;;;;;;10.60;3.60;;;;;;;10.33;57.64;98725.46;105922;1279;97895;-67
2022/05/29 05:49:35;;;;;;;14.30;3.30;;;;;;;10.41;57.64;98730.00;105885;1279;108436;-67
2022/05/29 05:52:06;;;;;;;8.70;3.40;;;;;;;10.49;57.65;98731.69;105914;1279;97961;-64
2022/05/29 05:54:34;;;;;;;9.30;3.50;;;;;;;10.54;57.61;98728.47;105912;1279;98030;-67
2022/05/29 05:57:06;;;;;;;12.70;3.20;;;;;;;10.60;57.71;98725.46;105924;1279;109934;-64
2022/05/29 05:59:40;;;;;;;9.20;3.30;;;;;;;10.70;57.70;98721.91;105805;1279;97913;-66
2022/05/29 06:02:11;;;;;;;4.70;2.60;;;;;;;10.78;57.69;98723.09;105897;1279;107577;-66
2022/05/29 06:04:45;;;;;;;11.90;3.40;;;;;;;10.86;57.69;98723.98;105868;1279;98024;-66
2022/05/29 06:07:13;;;;;;;10.50;3.30;;;;;;;10.95;57.69;98718.49;105840;1279;98012;-66
2022/05/29 06:09:42;;;;;;;13.20;3.50;;;;;;;11.05;57.56;98717.38;105837;1279;112038;-67
2022/05/29 06:12:10;;;;;;;15.10;3.80;;;;;;;11.13;57.63;98715.99;105870;1279;97968;-65
2022/05/29 06:14:38;;;;;;;12.60;3.60;;;;;;;11.22;57.70;98715.07;105892;1279;108314;-66
2022/05/29 06:17:09;;;;;;;11.40;2.80;;;;;;;11.32;57.57;98718.73;105836;1279;98011;-67
2022/05/29 06:19:38;;;;;;;9.70;2.70;;;;;;;11.43;57.59;98715.55;105838;1279;98015;-66
2022/05/29 06:22:12;;;;;;;7.40;3.30;;;;;;;11.55;57.54;98719.20;105836;1279;112063;-68
2022/05/29 06:24:40;;;;;;;12.10;3.50;;;;;;;11.71;57.70;98722.84;105788;1279;95209;-67
2022/05/29 06:27:09;;;;;;;8.30;3.30;;;;;;;11.95;57.60;98718.02;105706;1279;108337;-66
2022/05/29 06:29:37;;;;;;;8.10;3.00;;;;;;;12.14;57.58;98717.75;105878;1279;98587;-68
2022/05/29 06:32:12;;;;;;;10.30;3.00;;;;;;;12.28;57.56;98716.38;105877;1279;97866;-69
2022/05/29 06:34:44;;;;;;;10.60;3.20;;;;;;;12.40;57.50;98714.98;105841;1279;111986;-69
2022/05/29 06:37:12;;;;;;;10.10;3.40;;;;;;;12.52;57.56;98711.34;105863;1279;98453;-66
2022/05/29 06:39:40;;;;;;;8.90;3.10;;;;;;;12.64;57.68;98710.06;105900;1279;108214;-67
2022/05/29 06:42:13;;;;;;;10.60;3.00;;;;;;;12.77;57.61;98705.20;105840;1279;97888;-66
2022/05/29 06:44:45;;;;;;;11.80;3.30;;;;;;;12.89;57.59;98705.76;105747;1281;98119;-67
2022/05/29 06:47:15;;;;;;;8.70;2.90;;;;;;;13.01;57.61;98709.56;105719;1281;111982;-67
2022/05/29 06:49:49;;;;;;;9.50;3.30;;;;;;;13.13;57.63;98708.47;105730;1279;97979;-66
2022/05/29 06:52:19;;;;;;;10.20;2.90;;;;;;;13.27;57.52;98705.99;105659;1278;108450;-67
2022/05/29 06:54:47;;;;;;;10.50;2.90;;;;;;;13.40;57.25;98703.45;105730;1278;97886;-67
2022/05/29 06:57:36;;;;;;;12.70;3.10;;;;;;;13.53;57.17;98705.35;105716;1279;97916;-68
2022/05/29 07:08:51;;;;;;;7.50;2.90;;;;;;;14.56;57.16;98694.78;105818;1279;98019;-67
2022/05/29 07:11:24;;;;;;;10.60;3.00;;;;;;;14.83;57.20;98692.77;105773;1279;97894;-67
2022/05/29 07:13:55;;;;;;;10.40;3.20;;;;;;;15.14;57.17;98696.70;105794;1279;110449;-66
2022/05/29 07:16:24;;;;;;;9.70;3.00;;;;;;;15.39;57.09;98697.70;105896;1279;97770;-67
2022/05/29 07:18:55;;;;;;;7.50;2.50;;;;;;;15.62;56.82;98705.77;105747;1281;108410;-69
2022/05/29 07:21:31;;;;;;;6.50;2.50;;;;;;;16.00;56.60;98704.75;105855;1279;97889;-67
2022/05/29 07:24:03;;;;;;;8.60;2.20;;;;;;;16.42;56.63;98710.15;105948;1279;96988;-67
2022/05/29 07:26:31;;;;;;;6.60;1.90;;;;;;;17.00;56.20;98706.86;105811;1279;111976;-67
2022/05/29 07:28:59;;;;;;;8.90;3.00;;;;;;;17.54;56.06;98708.88;105789;1279;97876;-66
2022/05/29 07:31:31;;;;;;;9.80;3.30;;;;;;;18.05;55.96;98707.52;105822;1279;108377;-67
2022/05/29 07:33:59;;;;;;;8.10;2.40;;;;;;;19.43;54.63;98705.10;105862;1279;95313;-68
2022/05/29 07:36:28;;;;;;;7.20;2.40;;;;;;;20.90;53.91;98700.02;105897;1279;97887;-68
2022/05/29 07:38:58;;;;;;;7.50;2.90;;;;;;;22.57;53.26;98695.09;105700;1281;112156;-67
2022/05/29 07:44:13;;;;;;;8.80;2.40;;;;;;;25.37;53.19;98690.76;105815;1279;108534;-76
2022/05/29 07:46:42;;;;;;;10.70;3.00;;;;;;;26.41;53.45;98690.94;105900;1279;98399;-73
2022/05/29 07:49:13;;;;;;;14.20;3.80;;;;;;;27.65;52.88;98694.79;105689;1280;96265;-71
2022/05/29 07:51:42;;;;;;;10.30;3.10;;;;;;;28.67;52.44;98693.53;105687;1279;111595;-71
2022/05/29 07:54:10;;;;;;;11.40;3.40;;;;;;;28.64;52.12;98694.72;105705;1279;98400;-69
2022/05/29 07:56:38;;;;;;;12.20;3.60;;;;;;;28.92;52.25;98696.20;105685;1279;107949;-70
2022/05/29 07:59:08;;;;;;;8.50;2.30;;;;;;;29.09;52.35;98697.35;105747;1279;95930;-68
2022/05/29 08:01:37;;;;;;;8.20;2.60;;;;;;;29.55;50.98;98693.77;105781;1280;97862;-68
2022/05/29 08:04:09;;;;;;;8.20;2.50;;;;;;;29.27;51.11;98699.24;105855;1279;112325;-69
2022/05/29 08:06:41;;;;;;;7.30;2.40;;;;;;;29.44;50.85;98694.87;105858;1279;97799;-65
2022/05/29 08:09:09;;;;;;;9.10;2.30;;;;;;;29.95;50.31;98692.95;105825;1279;108205;-67
2022/05/29 08:11:38;;;;;;;5.10;2.10;;;;;;;30.27;49.80;98693.36;105701;1281;97910;-66
2022/05/29 08:14:09;;;;;;;7.70;2.40;;;;;;;29.69;50.39;98692.16;105860;1279;97890;-66
2022/05/29 08:16:41;;;;;;;8.10;2.10;;;;;;;29.89;49.47;98688.20;105909;1279;112071;-66
2022/05/29 08:19:09;;;;;;;8.20;2.70;;;;;;;30.40;48.67;98683.58;105537;1279;97133;-66
2022/05/29 08:21:37;;;;;;;5.30;2.20;;;;;;;30.76;48.25;98680.88;105639;1279;108499;-66
2022/05/29 08:32:47;;;;;;;7.80;2.20;;;;;;;31.93;46.31;98683.80;105750;1279;98489;-67
2022/05/29 08:35:15;;;;;;;8.50;2.50;;;;;;;32.02;45.89;98683.20;105771;1279;108367;-67
2022/05/29 08:37:43;;;;;;;8.70;2.50;;;;;;;31.97;45.22;98684.57;105770;1279;96325;-66
2022/05/29 08:40:12;;;;;;;10.10;2.60;;;;;;;31.87;44.15;98684.19;105716;1281;96351;-67
2022/05/29 08:42:42;;;;;;;6.30;2.40;;;;;;;31.74;44.30;98684.36;105714;1280;111073;-68
2022/05/29 08:45:14;;;;;;;9.40;2.60;;;;;;;31.94;43.93;98690.41;105622;1281;96417;-67
2022/05/29 08:47:46;;;;;;;6.80;2.30;;;;;;;32.06;43.33;98694.86;105668;1281;106935;-67
2022/05/29 08:50:29;;;;;;;7.80;2.40;;;;;;;31.65;42.42;98693.05;105606;1279;97852;-67
2022/05/29 08:53:05;;;;;;;7.60;2.50;;;;;;;30.95;41.46;98691.95;105700;1281;96340;-66
2022/05/29 08:55:40;;;;;;;6.70;2.50;;;;;;;30.28;41.50;98697.35;105760;1278;111872;-66
2022/05/29 08:58:46;;;;;;;8.70;2.50;;;;;;;30.38;41.63;98693.59;105807;1279;97756;-66
2022/05/29 09:01:19;;;;;;;5.50;2.20;;;;;;;30.68;41.04;98684.79;105860;1279;108491;-66
2022/05/29 09:03:58;;;;;;;6.60;1.90;;;;;;;30.41;40.07;98688.42;105795;1279;97872;-67
2022/05/29 09:06:51;;;;;;;5.90;2.20;;;;;;;29.86;40.23;98694.83;105849;1279;97903;-67
2022/05/29 09:09:34;;;;;;;8.00;2.70;;;;;;;29.44;39.84;98698.05;105738;1279;111385;-66
2022/05/29 09:12:07;;;;;;;6.30;2.10;;;;;;;29.56;39.67;98699.77;105864;1279;98434;-68
2022/05/29 09:14:43;;;;;;;9.00;2.40;;;;;;;29.55;39.20;98694.82;105637;1279;108582;-67
2022/05/29 09:17:35;;;;;;;6.60;2.20;;;;;;;29.59;39.23;98696.86;105709;1279;98486;-67
2022/05/29 09:20:27;;;;;;;6.20;2.40;;;;;;;29.78;38.96;98694.19;105840;1279;95316;-69
2022/05/29 09:23:00;;;;;;;5.00;2.00;;;;;;;30.06;38.73;98691.66;105730;1281;112088;-67
2022/05/29 09:25:35;;;;;;;7.50;2.00;;;;;;;30.07;38.20;98692.78;105828;1279;96297;-69
2022/05/29 09:28:09;;;;;;;6.40;2.00;;;;;;;29.92;38.08;98692.73;105928;1279;107632;-73
2022/05/29 09:30:40;;;;;;;8.80;2.60;;;;;;;29.82;37.61;98687.77;105805;1279;97910;-68
2022/05/29 09:33:20;;;;;;;4.30;1.80;;;;;;;29.65;37.66;98688.20;105832;1279;95316;-70
2022/05/29 09:35:51;;;;;;;12.20;2.30;;;;;;;29.96;37.82;98685.39;105454;1279;111396;-75
2022/05/29 09:38:43;;;;;;;13.00;3.40;;;;;;;30.14;37.52;98682.09;105693;1279;97916;-70
2022/05/29 09:41:30;;;;;;;9.10;3.60;;;;;;;30.25;37.21;98670.52;105688;1278;107439;-69
2022/05/29 09:44:04;;;;;;;4.70;2.20;;;;;;;30.21;36.65;98664.20;105702;1279;96509;-71
2022/05/29 09:46:38;;;;;;;7.90;2.50;;;;;;;29.81;36.31;98660.43;105830;1279;97890;-76
2022/05/29 09:49:40;;;;;;;6.40;2.30;;;;;;;29.43;36.14;98661.27;105716;1279;112139;-68
2022/05/29 09:52:17;;;;;;;5.50;2.00;;;;;;;29.37;36.46;98659.36;105536;1281;98582;-69
2022/05/29 09:55:04;;;;;;;7.40;2.00;;;;;;;29.45;36.22;98662.08;105836;1279;106948;-69
2022/05/29 09:57:43;;;;;;;7.00;2.20;;;;;;;29.44;35.75;98664.64;105622;1281;97965;-68
2022/05/29 10:00:32;;;;;;;6.10;2.00;;;;;;;29.06;35.46;98661.10;105807;1279;97006;-69
2022/05/29 10:03:01;;;;;;;4.80;1.70;;;;;;;28.19;35.42;98660.92;105839;1279;112043;-69
2022/05/29 10:05:34;;;;;;;8.90;2.00;;;;;;;27.52;35.33;98663.98;105726;1279;97632;-68
2022/05/29 10:08:20;;;;;;;;;;;;;;;26.77;35.10;98661.75;105654;1281;108324;-68
2022/05/29 10:10:48;;;;;;;7.80;2.10;;;;;;;25.90;34.88;98659.48;105688;1279;97887;-69
2022/05/29 10:13:37;;;;;;;6.50;2.10;;;;;;;25.47;34.68;98653.33;105717;1279;98105;-71
2022/05/29 10:16:07;;;;;;;6.90;2.20;;;;;;;25.11;34.72;98650.21;105717;1279;111429;-68
2022/05/29 10:18:38;;;;;;;6.20;1.90;;;;;;;24.64;34.49;98654.21;105770;1279;97692;-69
2022/05/29 10:21:15;;;;;;;11.20;2.70;;;;;;;24.20;34.37;98656.54;105697;1279;107905;-70
2022/05/29 10:23:50;;;;;;;9.00;2.90;;;;;;;23.97;34.34;98652.02;105729;1279;97885;-68
2022/05/29 10:26:32;;;;;;;9.30;2.60;;;;;;;23.81;34.42;98645.56;105875;1279;96620;-69
2022/05/29 10:29:11;;;;;;;9.30;2.40;;;;;;;23.63;34.28;98643.67;105769;1279;111513;-68
2022/05/29 10:31:40;;;;;;;9.70;3.70;;;;;;;23.49;34.34;98638.08;105705;1279;97632;-67
2022/05/29 10:34:12;;;;;;;6.10;2.20;;;;;;;23.39;34.20;98639.43;105754;1279;107821;-70
2022/05/29 10:36:43;;;;;;;6.50;1.80;;;;;;;23.11;33.86;98635.89;105793;1279;96324;-68
2022/05/29 10:39:17;;;;;;;7.70;2.10;;;;;;;22.84;33.93;98629.91;105769;1279;97880;-68
2022/05/29 10:41:45;;;;;;;5.00;1.60;;;;;;;22.74;33.90;98626.83;105633;1281;113621;-69
2022/05/29 10:44:46;;;;;;;3.50;1.40;;;;;;;22.53;34.14;98624.44;105681;1279;98089;-67
2022/05/29 10:47:17;;;;;;;3.60;1.60;;;;;;;22.19;33.60;98620.10;105660;1279;107862;-68
2022/05/29 10:50:04;;;;;;;7.10;2.00;;;;;;;21.94;33.86;98617.31;105634;1279;99020;-66
2022/05/29 10:53:11;;;;;;;9.10;2.50;;;;;;;21.77;33.90;98610.23;105544;1279;96634;-69
2022/05/29 10:56:14;;;;;;;6.10;1.90;;;;;;;21.72;33.81;98611.80;105696;1279;111423;-68
2022/05/29 10:59:16;;;;;;;9.40;2.30;;;;;;;21.57;33.89;98613.45;105745;1279;98231;-68
2022/05/29 11:05:32;;;;;;;5.00;1.70;;;;;;;21.43;33.93;98601.83;105749;1279;95414;-68
2022/05/29 11:08:30;;;;;;;4.70;2.00;;;;;;;21.43;33.65;98599.92;105543;1279;97856;-68
2022/05/29 11:11:10;;;;;;;5.80;2.00;;;;;;;21.30;33.56;98606.15;105711;1279;112086;-68
2022/05/29 11:14:15;;;;;;;5.20;1.70;;;;;;;21.32;33.86;98602.38;105703;1279;96756;-68
2022/05/29 11:16:58;;;;;;;7.60;2.80;;;;;;;21.30;33.52;98599.11;105768;1279;108415;-67
2022/05/29 11:19:58;;;;;;;4.00;1.50;;;;;;;21.08;33.56;98598.09;105759;1279;97997;-68
2022/05/29 11:22:40;;;;;;;4.70;1.70;;;;;;;20.94;33.97;98601.40;105745;1281;97792;-67
2022/05/29 11:25:41;;;;;;;5.30;1.80;;;;;;;20.92;33.93;98603.05;105810;1279;112053;-66
2022/05/29 11:28:12;;;;;;;6.40;2.30;;;;;;;20.91;33.98;98598.37;105807;1279;97889;-67
2022/05/29 11:31:18;;;;;;;8.40;1.80;;;;;;;20.89;33.79;98601.80;105914;1279;107803;-66
2022/05/29 11:34:06;;;;;;;5.00;1.60;;;;;;;20.87;33.74;98600.52;105733;1279;97981;-67
2022/05/29 11:37:01;;;;;;;10.20;2.50;;;;;;;20.79;33.64;98594.23;105751;1281;95278;-68
2022/05/29 11:39:55;;;;;;;8.80;2.10;;;;;;;20.75;33.96;98594.42;105805;1279;112063;-67
2022/05/29 11:42:35;;;;;;;3.50;1.70;;;;;;;20.74;33.80;98586.02;105819;1281;97728;-67
2022/05/29 11:45:20;;;;;;;4.30;1.30;;;;;;;20.73;33.87;98586.28;105734;1281;107541;-67
2022/05/29 11:51:18;;;;;;;9.50;2.20;;;;;;;20.63;33.88;98586.65;105760;1281;97955;-67
2022/05/29 11:54:03;;;;;;;2.80;1.50;;;;;;;20.54;33.98;98585.92;105783;1281;112038;-70
2022/05/29 11:56:36;;;;;;;;;;;;;;;20.51;33.97;98584.43;105756;1281;96249;-67
2022/05/29 11:59:31;;;;;;;7.10;1.90;;;;;;;20.42;33.90;98586.13;105647;1281;108366;-66
2022/05/29 12:02:29;;;;;;;6.00;1.70;;;;;;;20.33;34.00;98581.61;105655;1281;97918;-67
2022/05/29 12:05:37;;;;;;;4.40;1.30;;;;;;;20.24;34.07;98583.19;105753;1280;96450;-67
2022/05/29 12:08:13;;;;;;;3.70;1.40;;;;;;;20.16;33.89;98587.58;105691;1281;112046;-67
2022/05/29 12:10:56;;;;;;;6.30;1.30;;;;;;;20.13;33.82;98586.48;105817;1281;97995;-69
2022/05/29 12:13:31;;;;;;;8.50;1.70;;;;;;;20.08;33.83;98583.48;105677;1281;108523;-68
2022/05/29 12:16:12;;;;;;;5.70;2.00;;;;;;;20.04;33.83;98579.16;105807;1279;97995;-68
2022/05/29 12:18:56;;;;;;;6.20;1.70;;;;;;;19.95;33.92;98579.13;105845;1281;95275;-69
2022/05/29 12:21:51;;;;;;;7.90;2.00;;;;;;;19.86;34.04;98583.02;105760;1281;111144;-67
2022/05/29 12:24:26;;;;;;;4.60;1.80;;;;;;;19.79;34.12;98581.16;105486;1282;96382;-68
2022/05/29 12:27:13;;;;;;;4.80;2.00;;;;;;;19.77;34.09;98577.98;105812;1281;108506;-69
2022/05/29 12:29:49;;;;;;;6.40;2.00;;;;;;;19.72;34.01;98580.42;105760;1281;98462;-68
2022/05/29 12:32:27;;;;;;;7.00;2.00;;;;;;;19.60;33.87;98579.08;105777;1281;95211;-68
2022/05/29 12:35:15;;;;;;;8.00;2.20;;;;;;;19.45;34.13;98575.22;105703;1281;111425;-68
2022/05/29 12:38:13;;;;;;;6.30;1.90;;;;;;;19.47;34.21;98571.43;105721;1281;98007;-68
2022/05/29 12:40:44;;;;;;;4.50;2.00;;;;;;;19.51;34.39;98574.77;105662;1281;108318;-68
2022/05/29 12:43:45;;;;;;;7.40;2.20;;;;;;;19.56;34.34;98571.45;105712;1279;95417;-67